createdAt,value
2018-12-29T00:00:14.881Z,84.07
2018-12-29T00:02:43.834Z,86.20
2018-12-29T00:05:12.687Z,78.97
2018-12-29T00:07:41.708Z,82.33
2018-12-29T00:10:10.478Z,75.53
2018-12-29T00:12:39.358Z,74.93
2018-12-29T00:15:11.242Z,82.97
2018-12-29T00:17:40.162Z,80.17
2018-12-29T00:20:09.114Z,77.97
2018-12-29T00:22:38.055Z,73.40
2018-12-29T00:25:06.953Z,73.87
2018-12-29T00:27:35.865Z,87.77
2018-12-29T00:30:05.489Z,84.37
2018-12-29T00:32:34.448Z,76.33
2018-12-29T00:35:03.200Z,85.13
2018-12-29T00:37:32.131Z,81.43
2018-12-29T00:40:00.950Z,85.63
2018-12-29T00:42:29.843Z,73.73
2018-12-29T00:45:02.595Z,82.07
2018-12-29T00:47:30.203Z,76.07
2018-12-29T00:49:59.118Z,75.20
2018-12-29T00:52:27.906Z,77.97
2018-12-29T00:54:56.771Z,78.33
2018-12-29T00:57:25.693Z,75.80
2018-12-29T00:59:54.439Z,73.03
2018-12-29T01:02:23.032Z,78.87
2018-12-29T01:04:51.904Z,71.87
2018-12-29T01:07:20.552Z,73.27
2018-12-29T01:09:49.519Z,74.70
2018-12-29T01:12:18.928Z,76.33
2018-12-29T01:14:47.847Z,79.47
2018-12-29T01:17:16.477Z,76.13
2018-12-29T01:19:45.385Z,76.77
2018-12-29T01:22:14.286Z,76.93
2018-12-29T01:24:43.116Z,76.43
2018-12-29T01:27:11.844Z,78.40
2018-12-29T01:29:40.538Z,74.40
2018-12-29T01:32:09.334Z,77.07
2018-12-29T01:34:38.001Z,71.87
2018-12-29T01:37:08.305Z,72.43
2018-12-29T01:39:37.140Z,72.47
2018-12-29T01:42:05.819Z,72.50
2018-12-29T01:44:34.501Z,77.20
2018-12-29T01:47:03.241Z,70.97
2018-12-29T01:49:31.974Z,73.60
2018-12-29T01:52:00.835Z,72.97
2018-12-29T01:54:29.540Z,83.07
2018-12-29T01:56:58.438Z,76.53
2018-12-29T01:59:27.343Z,71.50
2018-12-29T02:01:56.181Z,75.43
2018-12-29T02:04:24.851Z,75.27
2018-12-29T02:06:53.643Z,65.87
2018-12-29T02:09:22.591Z,74.03
2018-12-29T02:11:51.321Z,77.33
2018-12-29T02:14:20.175Z,77.60
2018-12-29T02:16:49.099Z,77.67
2018-12-29T02:19:17.849Z,70.10
2018-12-29T02:21:49.279Z,73.03
2018-12-29T02:24:17.963Z,78.63
2018-12-29T02:26:46.831Z,80.07
2018-12-29T02:29:15.709Z,72.40
2018-12-29T02:31:44.468Z,73.67
2018-12-29T02:34:13.299Z,70.00
2018-12-29T02:36:41.998Z,68.23
2018-12-29T02:39:10.708Z,71.77
2018-12-29T02:41:40.933Z,75.87
2018-12-29T02:44:09.596Z,75.80
2018-12-29T02:46:39.394Z,73.97
2018-12-29T02:49:07.985Z,74.50
2018-12-29T02:51:36.791Z,78.43
2018-12-29T02:54:05.485Z,72.97
2018-12-29T02:56:34.138Z,70.10
2018-12-29T02:59:02.918Z,71.63
2018-12-29T03:01:31.576Z,78.93
2018-12-29T03:04:00.176Z,72.63
2018-12-29T03:06:30.949Z,75.23
2018-12-29T03:08:59.611Z,65.73
2018-12-29T03:11:28.489Z,67.83
2018-12-29T03:13:57.190Z,69.10
2018-12-29T03:16:26.062Z,70.33
2018-12-29T03:18:54.767Z,65.63
2018-12-29T03:21:23.335Z,68.70
2018-12-29T03:23:52.075Z,66.70
2018-12-29T03:26:20.931Z,62.50
2018-12-29T03:28:49.735Z,71.03
2018-12-29T03:31:18.619Z,69.17
2018-12-29T03:33:47.165Z,66.40
2018-12-29T03:36:15.724Z,68.10
2018-12-29T03:38:44.607Z,61.43
2018-12-29T03:41:13.326Z,56.83
2018-12-29T03:43:42.301Z,66.87
2018-12-29T03:46:10.902Z,62.03
2018-12-29T03:48:39.705Z,64.07
2018-12-29T03:51:08.552Z,63.33
2018-12-29T03:53:37.343Z,68.27
2018-12-29T03:56:06.142Z,58.33
2018-12-29T03:58:34.753Z,65.17
2018-12-29T04:01:03.529Z,63.40
2018-12-29T04:03:32.370Z,60.67
2018-12-29T04:06:01.164Z,68.07
2018-12-29T04:08:29.867Z,65.30
2018-12-29T04:10:59.345Z,60.47
2018-12-29T04:13:28.087Z,61.07
2018-12-29T04:15:58.120Z,61.93
2018-12-29T04:18:27.257Z,62.93
2018-12-29T04:20:55.963Z,63.13
2018-12-29T04:23:24.730Z,57.70
2018-12-29T04:25:53.313Z,64.47
2018-12-29T04:28:23.429Z,67.37
2018-12-29T04:30:52.248Z,59.53
2018-12-29T04:33:20.770Z,65.10
2018-12-29T04:35:49.444Z,62.80
2018-12-29T04:38:18.366Z,53.10
2018-12-29T04:40:47.127Z,56.50
2018-12-29T04:43:15.872Z,56.67
2018-12-29T04:45:44.598Z,54.00
2018-12-29T04:48:13.430Z,59.17
2018-12-29T04:50:42.209Z,61.03
2018-12-29T04:53:10.975Z,58.27
2018-12-29T04:55:39.744Z,55.67
2018-12-29T04:58:08.499Z,60.23
2018-12-29T05:00:37.326Z,56.50
2018-12-29T05:03:06.027Z,53.73
2018-12-29T05:05:34.839Z,59.53
2018-12-29T05:08:03.377Z,51.73
2018-12-29T05:10:32.361Z,61.73
2018-12-29T05:13:00.909Z,55.47
2018-12-29T05:15:29.841Z,57.80
2018-12-29T05:17:58.608Z,56.83
2018-12-29T05:20:27.438Z,56.13
2018-12-29T05:22:56.156Z,53.67
2018-12-29T05:25:25.096Z,55.53
2018-12-29T05:27:53.897Z,59.23
2018-12-29T05:30:22.698Z,54.40
2018-12-29T05:32:51.508Z,59.63
2018-12-29T05:35:20.076Z,54.30
2018-12-29T05:37:49.637Z,55.90
2018-12-29T05:40:18.549Z,58.60
2018-12-29T05:42:47.149Z,54.37
2018-12-29T05:45:16.179Z,51.07
2018-12-29T05:47:44.774Z,57.57
2018-12-29T05:50:13.553Z,56.53
2018-12-29T05:52:42.483Z,52.07
2018-12-29T05:55:11.336Z,53.13
2018-12-29T05:57:40.228Z,56.90
2018-12-29T06:00:10.399Z,54.67
2018-12-29T06:02:39.234Z,56.67
2018-12-29T06:05:08.034Z,56.83
2018-12-29T06:07:38.174Z,53.00
2018-12-29T06:10:07.075Z,50.73
2018-12-29T06:12:35.673Z,54.17
2018-12-29T06:15:05.566Z,58.47
2018-12-29T06:17:34.423Z,50.77
2018-12-29T06:20:03.982Z,54.43
2018-12-29T06:22:32.900Z,51.83
2018-12-29T06:25:01.664Z,53.13
2018-12-29T06:27:30.220Z,52.70
2018-12-29T06:29:58.816Z,53.33
2018-12-29T06:32:27.585Z,51.77
2018-12-29T06:34:56.414Z,56.77
2018-12-29T06:37:25.044Z,53.23
2018-12-29T06:39:53.829Z,54.10
2018-12-29T06:42:22.438Z,52.93
2018-12-29T06:44:51.178Z,51.07
2018-12-29T06:47:21.400Z,49.33
2018-12-29T06:49:50.183Z,48.90
2018-12-29T06:52:19.092Z,49.97
2018-12-29T06:54:48.028Z,50.60
2018-12-29T06:57:16.913Z,50.27
2018-12-29T06:59:45.784Z,52.13
2018-12-29T07:02:14.725Z,54.30
2018-12-29T07:04:43.589Z,46.53
2018-12-29T07:07:12.383Z,48.47
2018-12-29T07:09:41.089Z,51.17
2018-12-29T07:12:09.866Z,52.83
2018-12-29T07:14:38.475Z,51.47
2018-12-29T07:17:07.139Z,52.67
2018-12-29T07:19:35.843Z,49.10
2018-12-29T07:22:04.527Z,51.80
2018-12-29T07:24:33.179Z,54.90
2018-12-29T07:27:01.981Z,48.03
2018-12-29T07:29:37.937Z,49.47
2018-12-29T07:32:00.983Z,49.20
2018-12-29T07:34:29.773Z,48.03
2018-12-29T07:36:58.369Z,50.67
2018-12-29T07:39:28.586Z,53.03
2018-12-29T07:41:57.142Z,52.00
2018-12-29T07:44:25.940Z,50.20
2018-12-29T07:46:54.678Z,47.13
2018-12-29T07:49:23.425Z,48.97
2018-12-29T07:51:52.193Z,50.17
2018-12-29T07:54:21.097Z,44.43
2018-12-29T07:56:49.832Z,45.67
2018-12-29T07:59:18.388Z,45.03
2018-12-29T08:01:47.306Z,44.07
2018-12-29T08:04:16.054Z,43.40
2018-12-29T08:06:44.566Z,46.17
2018-12-29T08:09:13.532Z,41.07
2018-12-29T08:11:42.169Z,43.17
2018-12-29T08:14:10.951Z,40.20
2018-12-29T08:16:41.141Z,39.40
2018-12-29T08:19:09.832Z,37.00
2018-12-29T08:21:38.708Z,42.07
2018-12-29T08:24:07.329Z,45.43
2018-12-29T08:26:36.134Z,41.03
2018-12-29T08:29:05.054Z,37.80
2018-12-29T08:31:33.952Z,43.97
2018-12-29T08:34:02.832Z,52.03
2018-12-29T08:36:31.483Z,39.87
2018-12-29T08:39:00.344Z,42.97
2018-12-29T08:41:29.210Z,35.70
2018-12-29T08:43:58.039Z,38.07
2018-12-29T08:46:27.012Z,40.37
2018-12-29T08:48:55.853Z,42.53
2018-12-29T08:51:24.817Z,37.17
2018-12-29T08:53:53.672Z,36.80
2018-12-29T08:56:22.393Z,37.17
2018-12-29T08:58:51.314Z,35.87
2018-12-29T09:01:20.173Z,38.27
2018-12-29T09:03:49.011Z,34.77
2018-12-29T09:06:19.730Z,37.53
2018-12-29T09:08:48.467Z,36.17
2018-12-29T09:11:20.229Z,40.83
2018-12-29T09:13:48.937Z,43.53
2018-12-29T09:16:17.730Z,37.93
2018-12-29T09:18:49.807Z,43.00
2018-12-29T09:21:16.997Z,39.47
2018-12-29T09:23:45.740Z,38.07
2018-12-29T09:26:14.551Z,33.83
2018-12-29T09:28:43.427Z,39.63
2018-12-29T09:31:11.933Z,37.73
2018-12-29T09:33:42.309Z,42.80
2018-12-29T09:36:11.119Z,39.60
2018-12-29T09:38:39.695Z,39.00
2018-12-29T09:41:08.268Z,38.80
2018-12-29T09:43:37.083Z,36.90
2018-12-29T09:46:05.793Z,41.17
2018-12-29T09:48:34.494Z,39.43
2018-12-29T09:51:03.248Z,43.63
2018-12-29T09:53:32.062Z,39.73
2018-12-29T09:56:00.788Z,41.37
2018-12-29T09:58:31.264Z,37.37
2018-12-29T10:01:00.204Z,42.53
2018-12-29T10:03:28.925Z,46.83
2018-12-29T10:05:57.638Z,38.27
2018-12-29T10:08:26.479Z,35.97
2018-12-29T10:10:55.082Z,37.27
2018-12-29T10:13:23.620Z,41.87
2018-12-29T10:15:52.452Z,38.30
2018-12-29T10:18:21.402Z,36.47
2018-12-29T10:20:49.932Z,39.07
2018-12-29T10:23:18.742Z,34.80
2018-12-29T10:25:47.468Z,38.17
2018-12-29T10:28:16.372Z,38.83
2018-12-29T10:30:45.189Z,35.17
2018-12-29T10:33:13.862Z,38.70
2018-12-29T10:35:42.831Z,36.07
2018-12-29T10:38:11.741Z,38.00
2018-12-29T10:40:40.514Z,35.23
2018-12-29T10:43:09.543Z,34.40
2018-12-29T10:45:38.625Z,37.20
2018-12-29T10:48:07.715Z,34.37
2018-12-29T10:50:36.507Z,36.37
2018-12-29T10:53:05.450Z,30.30
2018-12-29T10:55:34.485Z,33.70
2018-12-29T10:58:03.514Z,34.37
2018-12-29T11:00:35.066Z,41.47
2018-12-29T11:03:02.672Z,35.10
2018-12-29T11:05:31.574Z,32.80
2018-12-29T11:08:00.525Z,33.13
2018-12-29T11:10:29.366Z,33.77
2018-12-29T11:12:58.245Z,30.53
2018-12-29T11:15:27.281Z,35.80
2018-12-29T11:17:56.121Z,35.60
2018-12-29T11:20:24.946Z,32.40
2018-12-29T11:22:53.814Z,32.63
2018-12-29T11:25:22.927Z,30.47
2018-12-29T11:27:51.612Z,31.73
2018-12-29T11:30:20.511Z,32.50
2018-12-29T11:32:49.448Z,33.57
2018-12-29T11:35:18.272Z,29.67
2018-12-29T11:37:47.244Z,31.03
2018-12-29T11:40:16.065Z,33.87
2018-12-29T11:42:44.691Z,33.37
2018-12-29T11:45:13.452Z,31.97
2018-12-29T11:47:49.584Z,37.33
2018-12-29T11:50:12.869Z,29.80
2018-12-29T11:52:43.314Z,35.80
2018-12-29T11:55:12.039Z,35.03
2018-12-29T11:57:40.675Z,34.40
2018-12-29T12:00:09.711Z,39.20
2018-12-29T12:02:38.677Z,29.90
2018-12-29T12:05:07.612Z,35.13
2018-12-29T12:07:36.639Z,30.23
2018-12-29T12:10:06.183Z,34.87
2018-12-29T12:12:35.665Z,32.87
2018-12-29T12:15:05.602Z,31.63
2018-12-29T12:17:34.534Z,28.50
2018-12-29T12:20:03.243Z,37.40
2018-12-29T12:22:32.080Z,33.13
2018-12-29T12:25:01.386Z,32.37
2018-12-29T12:27:30.302Z,32.73
2018-12-29T12:29:59.704Z,32.77
2018-12-29T12:32:28.563Z,32.17
2018-12-29T12:34:57.850Z,28.20
2018-12-29T12:37:28.241Z,34.43
2018-12-29T12:39:57.335Z,33.67
2018-12-29T12:42:25.923Z,32.23
2018-12-29T12:44:54.635Z,33.63
2018-12-29T12:47:23.368Z,34.33
2018-12-29T12:49:52.032Z,32.07
2018-12-29T12:52:20.583Z,32.97
2018-12-29T12:54:49.349Z,36.73
2018-12-29T12:57:18.514Z,36.97
2018-12-29T12:59:47.615Z,36.13
2018-12-29T13:02:16.444Z,34.23
2018-12-29T13:04:48.167Z,34.50
2018-12-29T13:07:16.911Z,35.10
2018-12-29T13:09:46.552Z,35.47
2018-12-29T13:12:16.887Z,37.13
2018-12-29T13:14:45.620Z,33.70
2018-12-29T13:17:14.533Z,37.40
2018-12-29T13:19:44.808Z,35.23
2018-12-29T13:22:13.478Z,37.73
2018-12-29T13:24:42.407Z,42.47
2018-12-29T13:27:11.555Z,39.17
2018-12-29T13:29:40.088Z,37.53
2018-12-29T13:32:08.648Z,39.70
2018-12-29T13:34:37.126Z,39.77
2018-12-29T13:37:05.854Z,39.23
2018-12-29T13:39:35.077Z,44.17
2018-12-29T13:42:03.747Z,45.40
2018-12-29T13:44:32.261Z,44.23
2018-12-29T13:47:00.852Z,39.93
2018-12-29T13:49:29.668Z,42.73
2018-12-29T13:51:58.867Z,43.97
2018-12-29T13:54:27.587Z,38.77
2018-12-29T13:56:56.778Z,45.33
2018-12-29T13:59:25.375Z,45.30
2018-12-29T14:01:54.026Z,48.80
2018-12-29T14:04:22.787Z,40.77
2018-12-29T14:06:51.533Z,39.60
2018-12-29T14:09:21.305Z,44.53
2018-12-29T14:11:50.089Z,46.27
2018-12-29T14:14:18.666Z,50.90
2018-12-29T14:16:49.838Z,50.63
2018-12-29T14:19:20.974Z,48.47
2018-12-29T14:21:51.247Z,48.27
2018-12-29T14:24:19.819Z,47.23
2018-12-29T14:26:48.654Z,51.20
2018-12-29T14:29:17.742Z,56.33
2018-12-29T14:31:46.428Z,56.67
2018-12-29T14:34:14.955Z,49.40
2018-12-29T14:36:43.538Z,50.77
2018-12-29T14:39:12.230Z,53.87
2018-12-29T14:41:41.462Z,58.17
2018-12-29T14:44:10.209Z,57.43
2018-12-29T14:46:38.945Z,59.10
2018-12-29T14:49:07.812Z,48.53
2018-12-29T14:51:36.594Z,54.40
2018-12-29T14:54:05.146Z,53.07
2018-12-29T14:56:33.856Z,55.10
2018-12-29T14:59:02.553Z,57.23
2018-12-29T15:01:31.140Z,58.40
2018-12-29T15:03:59.784Z,61.67
2018-12-29T15:06:28.331Z,54.60
2018-12-29T15:08:56.954Z,60.67
2018-12-29T15:11:25.861Z,58.63
2018-12-29T15:13:54.426Z,59.60
2018-12-29T15:16:23.104Z,65.07
2018-12-29T15:18:51.966Z,56.53
2018-12-29T15:21:20.661Z,54.27
2018-12-29T15:23:49.282Z,61.67
2018-12-29T15:26:18.181Z,59.50
2018-12-29T15:28:46.975Z,58.37
2018-12-29T15:31:15.669Z,55.73
2018-12-29T15:33:44.218Z,61.53
2018-12-29T15:36:16.129Z,65.50
2018-12-29T15:38:43.429Z,57.27
2018-12-29T15:41:12.261Z,59.40
2018-12-29T15:43:40.881Z,59.27
2018-12-29T15:46:09.440Z,59.63
2018-12-29T15:48:38.009Z,56.60
2018-12-29T15:51:06.610Z,63.40
2018-12-29T15:53:35.265Z,61.90
2018-12-29T15:56:04.062Z,57.13
2018-12-29T15:58:32.601Z,64.17
2018-12-29T16:01:01.110Z,61.87
2018-12-29T16:03:29.696Z,60.20
2018-12-29T16:05:58.433Z,61.97
2018-12-29T16:08:27.440Z,63.30
2018-12-29T16:10:55.957Z,58.07
2018-12-29T16:13:24.536Z,57.07
2018-12-29T16:15:53.119Z,62.03
2018-12-29T16:18:21.968Z,68.53
2018-12-29T16:20:54.269Z,64.70
2018-12-29T16:23:22.390Z,58.47
2018-12-29T16:25:52.993Z,63.03
2018-12-29T16:28:21.590Z,55.83
2018-12-29T16:30:50.219Z,63.67
2018-12-29T16:33:18.759Z,59.30
2018-12-29T16:35:47.314Z,56.53
2018-12-29T16:38:15.967Z,54.63
2018-12-29T16:40:44.557Z,62.77
2018-12-29T16:43:13.124Z,58.90
2018-12-29T16:45:41.718Z,51.13
2018-12-29T16:48:10.634Z,51.20
2018-12-29T16:50:39.435Z,53.73
2018-12-29T16:53:08.024Z,51.77
2018-12-29T16:55:36.840Z,51.80
2018-12-29T16:58:05.864Z,50.77
2018-12-29T17:00:34.584Z,45.90
2018-12-29T17:03:03.404Z,48.60
2018-12-29T17:05:32.026Z,49.73
2018-12-29T17:08:00.838Z,45.93
2018-12-29T17:10:29.551Z,42.07
2018-12-29T17:12:58.299Z,48.67
2018-12-29T17:15:27.193Z,40.00
2018-12-29T17:17:56.097Z,34.17
2018-12-29T17:20:24.837Z,39.13
2018-12-29T17:22:53.672Z,42.67
2018-12-29T17:25:23.367Z,39.07
2018-12-29T17:27:52.326Z,38.77
2018-12-29T17:30:20.890Z,36.50
2018-12-29T17:32:49.595Z,36.97
2018-12-29T17:35:18.144Z,30.67
2018-12-29T17:37:46.807Z,35.70
2018-12-29T17:40:15.404Z,38.17
2018-12-29T17:42:46.823Z,29.80
2018-12-29T17:45:15.499Z,34.87
2018-12-29T17:47:44.206Z,29.43
2018-12-29T17:50:12.823Z,26.00
2018-12-29T17:52:41.376Z,39.03
2018-12-29T17:55:10.242Z,24.93
2018-12-29T17:57:38.958Z,28.70
2018-12-29T18:00:08.173Z,29.73
2018-12-29T18:02:36.912Z,26.97
2018-12-29T18:05:05.745Z,23.63
2018-12-29T18:07:34.340Z,26.40
2018-12-29T18:10:03.020Z,25.27
2018-12-29T18:12:31.544Z,23.33
2018-12-29T18:15:02.392Z,21.93
2018-12-29T18:17:30.393Z,19.23
2018-12-29T18:19:58.954Z,20.90
2018-12-29T18:22:28.052Z,25.20
2018-12-29T18:24:56.952Z,21.03
2018-12-29T18:27:25.508Z,16.70
2018-12-29T18:29:54.041Z,18.37
2018-12-29T18:32:24.149Z,14.40
2018-12-29T18:34:52.686Z,13.80
2018-12-29T18:37:21.649Z,15.80
2018-12-29T18:39:50.296Z,19.53
2018-12-29T18:42:18.884Z,14.77
2018-12-29T18:44:47.458Z,16.37
2018-12-29T18:47:17.174Z,15.03
2018-12-29T18:49:45.664Z,16.13
2018-12-29T18:52:17.437Z,17.37
2018-12-29T18:54:48.063Z,14.97
2018-12-29T18:57:16.241Z,14.43
2018-12-29T18:59:46.307Z,19.93
2018-12-29T19:02:14.899Z,16.00
2018-12-29T19:04:43.623Z,18.13
2018-12-29T19:07:12.159Z,16.60
2018-12-29T19:09:40.729Z,12.77
2018-12-29T19:12:11.374Z,15.83
2018-12-29T19:14:39.508Z,15.80
2018-12-29T19:17:08.074Z,16.87
2018-12-29T19:19:46.037Z,17.07
2018-12-29T19:22:14.712Z,13.63
2018-12-29T19:24:47.526Z,14.33
2018-12-29T19:27:16.060Z,12.87
2018-12-29T19:29:44.911Z,18.23
2018-12-29T19:32:13.869Z,9.93
2018-12-29T19:34:42.791Z,20.17
2018-12-29T19:37:11.775Z,9.97
2018-12-29T19:39:40.719Z,16.80
2018-12-29T19:42:09.270Z,9.47
2018-12-29T19:44:38.115Z,14.43
2018-12-29T19:47:06.616Z,17.20
2018-12-29T19:49:35.594Z,15.73
2018-12-29T19:52:04.356Z,12.43
2018-12-29T19:54:32.994Z,21.27
2018-12-29T19:57:01.865Z,17.63
2018-12-29T19:59:30.738Z,21.27
2018-12-29T20:02:02.788Z,14.93
2018-12-29T20:04:31.311Z,15.13
2018-12-29T20:07:00.047Z,15.47
2018-12-29T20:09:28.700Z,13.57
2018-12-29T20:11:57.537Z,20.77
2018-12-29T20:14:26.124Z,15.20
2018-12-29T20:16:54.726Z,14.70
2018-12-29T20:19:23.283Z,16.07
2018-12-29T20:21:53.478Z,13.77
2018-12-29T20:24:22.345Z,17.23
2018-12-29T20:26:50.921Z,17.87
2018-12-29T20:29:20.993Z,17.17
2018-12-29T20:31:55.542Z,18.13
2018-12-29T20:34:24.094Z,22.70
2018-12-29T20:36:53.090Z,25.90
2018-12-29T20:39:24.145Z,15.97
2018-12-29T20:41:55.378Z,15.43
2018-12-29T20:44:23.959Z,15.33
2018-12-29T20:46:52.599Z,11.17
2018-12-29T20:49:22.805Z,18.03
2018-12-29T20:51:52.899Z,16.17
2018-12-29T20:54:21.455Z,17.63
2018-12-29T20:56:53.542Z,24.87
2018-12-29T20:59:23.337Z,19.10
2018-12-29T21:01:51.926Z,15.80
2018-12-29T21:04:22.074Z,22.17
2018-12-29T21:06:50.664Z,21.80
2018-12-29T21:09:19.281Z,26.13
2018-12-29T21:11:47.831Z,16.10
2018-12-29T21:14:16.774Z,18.63
2018-12-29T21:16:48.289Z,26.53
2018-12-29T21:19:16.941Z,19.30
2018-12-29T21:21:45.529Z,18.40
2018-12-29T21:24:14.189Z,25.03
2018-12-29T21:26:47.690Z,25.90
2018-12-29T21:29:16.210Z,24.77
2018-12-29T21:31:48.048Z,21.10
2018-12-29T21:34:16.651Z,20.90
2018-12-29T21:36:45.229Z,23.03
2018-12-29T21:39:14.193Z,24.63
2018-12-29T21:41:42.824Z,29.13
2018-12-29T21:44:15.120Z,29.67
2018-12-29T21:46:43.651Z,25.70
2018-12-29T21:49:12.206Z,19.87
2018-12-29T21:51:40.774Z,22.50
2018-12-29T21:54:10.850Z,22.20
2018-12-29T21:56:41.037Z,25.20
2018-12-29T21:59:11.117Z,19.03
2018-12-29T22:01:39.665Z,23.73
2018-12-29T22:04:08.247Z,17.47
2018-12-29T22:06:36.806Z,22.03
2018-12-29T22:09:08.335Z,18.70
2018-12-29T22:11:36.958Z,19.97
2018-12-29T22:14:05.665Z,25.80
2018-12-29T22:16:34.374Z,22.50
2018-12-29T22:19:03.359Z,18.93
2018-12-29T22:21:32.068Z,17.23
2018-12-29T22:24:00.932Z,22.30
2018-12-29T22:26:29.696Z,19.83
2018-12-29T22:28:58.443Z,21.50
2018-12-29T22:31:26.950Z,21.70
2018-12-29T22:33:55.518Z,16.57
2018-12-29T22:36:24.092Z,20.57
2018-12-29T22:38:52.643Z,22.63
2018-12-29T22:41:21.209Z,19.83
2018-12-29T22:43:49.968Z,22.93
2018-12-29T22:46:18.767Z,18.13
2018-12-29T22:48:47.365Z,28.77
2018-12-29T22:51:16.037Z,19.83
2018-12-29T22:53:45.028Z,22.30
2018-12-29T22:56:13.853Z,25.37
2018-12-29T22:58:43.036Z,14.97
2018-12-29T23:01:11.656Z,24.07
2018-12-29T23:03:40.521Z,16.90
2018-12-29T23:06:09.301Z,18.47
2018-12-29T23:08:38.237Z,16.53
2018-12-29T23:11:07.250Z,16.67
2018-12-29T23:13:35.912Z,22.20
2018-12-29T23:16:04.538Z,14.93
2018-12-29T23:18:33.521Z,18.40
2018-12-29T23:21:02.056Z,18.43
2018-12-29T23:23:30.901Z,17.50
2018-12-29T23:26:00.240Z,20.90
2018-12-29T23:28:29.157Z,20.30
2018-12-29T23:30:58.424Z,19.80
2018-12-29T23:33:27.303Z,20.17
2018-12-29T23:35:56.215Z,18.03
2018-12-29T23:38:24.986Z,22.37
2018-12-29T23:40:53.893Z,21.47
2018-12-29T23:43:22.776Z,17.77
2018-12-29T23:45:51.613Z,16.03
2018-12-29T23:48:20.360Z,30.40
2018-12-29T23:50:49.329Z,22.53
2018-12-29T23:53:18.047Z,25.20
2018-12-29T23:55:47.145Z,19.17
2018-12-29T23:58:15.677Z,19.33
